createdAt,value
2023-02-19T00:01:10.013Z,10.20
2023-02-19T00:06:03.375Z,10.20
2023-02-19T00:11:02.288Z,10.20
2023-02-19T00:15:54.321Z,10.20
2023-02-19T00:20:46.440Z,10.20
2023-02-19T00:25:38.461Z,10.30
2023-02-19T00:30:30.749Z,10.30
2023-02-19T00:35:23.958Z,10.30
2023-02-19T00:40:15.990Z,10.50
2023-02-19T00:45:09.639Z,10.50
2023-02-19T00:50:01.628Z,10.50
2023-02-19T00:54:53.633Z,10.40
2023-02-19T00:59:45.953Z,10.50
2023-02-19T01:04:38.069Z,10.40
2023-02-19T01:09:30.040Z,10.50
2023-02-19T01:14:22.019Z,10.50
2023-02-19T01:19:14.072Z,10.50
2023-02-19T01:24:06.223Z,10.40
2023-02-19T01:29:01.900Z,10.40
2023-02-19T01:33:56.538Z,10.40
2023-02-19T01:38:49.828Z,10.40
2023-02-19T01:44:02.356Z,10.40
2023-02-19T01:48:55.453Z,10.40
2023-02-19T01:53:53.632Z,10.50
2023-02-19T01:58:47.413Z,10.50
2023-02-19T02:03:41.917Z,10.50
2023-02-19T02:10:11.709Z,10.50
2023-02-19T02:15:04.458Z,10.50
2023-02-19T02:20:23.243Z,10.30
2023-02-19T02:25:38.688Z,10.20
2023-02-19T02:31:02.889Z,10.20
2023-02-19T02:36:01.049Z,10.20
2023-02-19T02:40:55.485Z,10.10
2023-02-19T02:45:47.859Z,10.10
2023-02-19T02:51:07.218Z,10.10
2023-02-19T02:56:06.497Z,10.00
2023-02-19T03:01:25.865Z,10.00
2023-02-19T03:06:21.953Z,9.90
2023-02-19T03:11:32.377Z,9.90
2023-02-19T03:16:50.633Z,9.80
2023-02-19T03:21:45.747Z,9.90
2023-02-19T03:26:39.236Z,9.80
2023-02-19T03:31:33.120Z,9.80
2023-02-19T03:36:37.026Z,9.70
2023-02-19T03:42:10.535Z,9.70
2023-02-19T03:47:14.062Z,9.60
2023-02-19T03:52:20.604Z,9.60
2023-02-19T03:57:34.768Z,9.60
2023-02-19T04:02:34.476Z,9.60
2023-02-19T04:07:28.359Z,9.60
2023-02-19T04:12:22.711Z,9.60
2023-02-19T04:17:23.735Z,9.60
2023-02-19T04:22:17.449Z,9.60
2023-02-19T04:27:10.586Z,9.60
2023-02-19T04:32:02.871Z,9.60
2023-02-19T04:36:54.955Z,9.60
2023-02-19T04:41:46.977Z,9.60
2023-02-19T04:46:43.041Z,9.60
2023-02-19T04:51:35.320Z,9.60
2023-02-19T04:56:27.410Z,9.60
2023-02-19T05:01:19.486Z,9.60
2023-02-19T05:06:13.480Z,9.60
2023-02-19T05:11:07.927Z,9.50
2023-02-19T05:16:06.317Z,9.60
2023-02-19T05:20:59.508Z,9.70
2023-02-19T05:25:51.544Z,9.60
2023-02-19T05:30:48.703Z,9.60
2023-02-19T05:35:42.507Z,9.60
2023-02-19T05:40:35.086Z,9.60
2023-02-19T05:45:27.181Z,9.50
2023-02-19T05:50:20.342Z,9.50
2023-02-19T05:55:13.348Z,9.50
2023-02-19T06:00:05.767Z,9.40
2023-02-19T06:05:06.191Z,9.50
2023-02-19T06:09:58.211Z,9.40
2023-02-19T06:14:50.790Z,9.40
2023-02-19T06:19:42.911Z,9.50
2023-02-19T06:24:36.018Z,9.40
2023-02-19T06:29:28.012Z,9.40
2023-02-19T06:41:22.936Z,9.50
2023-02-19T06:46:15.137Z,9.50
2023-02-19T06:51:07.620Z,9.60
2023-02-19T06:56:05.992Z,9.60
2023-02-19T07:00:59.277Z,9.70
2023-02-19T07:05:51.263Z,9.70
2023-02-19T07:10:44.909Z,9.70
2023-02-19T07:15:37.079Z,9.70
2023-02-19T07:20:29.065Z,9.70
2023-02-19T07:25:21.828Z,9.80
2023-02-19T07:30:13.963Z,9.80
2023-02-19T07:35:06.359Z,9.40
2023-02-19T07:39:58.513Z,9.20
2023-02-19T07:44:50.483Z,8.90
2023-02-19T07:49:42.494Z,8.70
2023-02-19T07:54:34.578Z,8.60
2023-02-19T07:59:26.618Z,8.60
2023-02-19T08:04:18.851Z,8.50
2023-02-19T08:09:11.570Z,8.50
2023-02-19T08:14:03.594Z,8.30
2023-02-19T08:18:55.566Z,8.50
2023-02-19T08:23:50.612Z,8.70
2023-02-19T08:28:43.032Z,8.90
2023-02-19T08:33:36.135Z,8.40
2023-02-19T08:38:28.140Z,8.20
2023-02-19T08:43:20.178Z,8.20
2023-02-19T08:48:12.442Z,8.30
2023-02-19T08:53:06.917Z,8.50
2023-02-19T08:58:01.295Z,8.30
2023-02-19T09:02:58.465Z,8.00
2023-02-19T09:07:50.574Z,8.00
2023-02-19T09:12:42.758Z,7.70
2023-02-19T09:17:34.861Z,7.60
2023-02-19T09:22:26.831Z,7.60
2023-02-19T09:27:20.848Z,7.60
2023-02-19T09:32:13.511Z,7.60
2023-02-19T09:37:09.027Z,7.50
2023-02-19T09:42:15.543Z,7.00
2023-02-19T09:47:29.540Z,6.90
2023-02-19T09:52:42.202Z,6.90
2023-02-19T09:57:36.396Z,7.40
2023-02-19T10:02:30.859Z,8.20
2023-02-19T10:07:35.021Z,9.30
2023-02-19T10:12:31.394Z,10.20
2023-02-19T10:17:26.614Z,10.50
2023-02-19T10:22:20.041Z,10.80
2023-02-19T10:27:14.160Z,11.00
2023-02-19T10:32:24.200Z,11.40
2023-02-19T10:37:19.587Z,11.60
2023-02-19T10:42:16.850Z,11.60
2023-02-19T10:47:15.341Z,11.70
2023-02-19T10:52:43.617Z,11.50
2023-02-19T10:57:37.864Z,11.30
2023-02-19T11:02:33.175Z,10.90
2023-02-19T11:07:25.516Z,10.80
2023-02-19T11:12:29.406Z,11.10
2023-02-19T11:17:30.274Z,12.50
2023-02-19T11:22:32.920Z,11.80
2023-02-19T11:27:25.552Z,11.30
2023-02-19T11:32:20.479Z,10.80
2023-02-19T11:37:22.561Z,10.50
2023-02-19T11:42:34.933Z,10.50
2023-02-19T11:47:48.794Z,11.00
2023-02-19T11:52:53.685Z,11.30
2023-02-19T11:58:00.975Z,11.10
2023-02-19T12:02:54.220Z,10.80
2023-02-19T12:08:04.210Z,10.90
2023-02-19T12:13:14.810Z,11.10
2023-02-19T12:18:27.717Z,11.30
2023-02-19T12:23:31.938Z,11.30
2023-02-19T12:28:29.740Z,11.70
2023-02-19T12:33:39.122Z,11.90
2023-02-19T12:38:36.288Z,12.10
2023-02-19T12:43:30.632Z,11.80
2023-02-19T12:48:46.434Z,11.60
2023-02-19T12:53:49.408Z,11.20
2023-02-19T12:58:52.158Z,11.00
2023-02-19T13:04:39.804Z,10.60
2023-02-19T13:09:39.765Z,10.30
2023-02-19T13:14:43.501Z,10.30
2023-02-19T13:19:38.490Z,10.70
2023-02-19T13:24:35.128Z,10.80
2023-02-19T13:29:50.045Z,11.00
2023-02-19T13:35:18.069Z,10.80
2023-02-19T13:40:30.558Z,10.70
2023-02-19T13:45:26.664Z,10.90
2023-02-19T13:50:24.796Z,10.80
2023-02-19T13:55:51.545Z,10.60
2023-02-19T14:00:53.945Z,10.40
2023-02-19T14:05:57.957Z,10.10
2023-02-19T14:10:57.928Z,10.00
2023-02-19T14:15:51.285Z,9.90
2023-02-19T14:20:45.452Z,9.50
2023-02-19T14:25:42.442Z,9.40
2023-02-19T14:30:40.657Z,9.40
2023-02-19T14:35:42.575Z,9.60
2023-02-19T14:40:43.284Z,9.70
2023-02-19T14:45:45.553Z,9.50
2023-02-19T14:50:37.784Z,9.30
2023-02-19T14:55:37.544Z,9.20
2023-02-19T15:00:33.889Z,9.20
2023-02-19T15:05:28.748Z,9.30
2023-02-19T15:10:21.301Z,9.30
2023-02-19T15:15:29.188Z,9.30
2023-02-19T15:20:25.735Z,9.10
2023-02-19T15:25:25.183Z,8.90
2023-02-19T15:30:31.234Z,8.70
2023-02-19T15:35:25.230Z,8.50
2023-02-19T15:40:19.349Z,8.50
2023-02-19T15:45:30.633Z,8.50
2023-02-19T15:50:25.403Z,8.30
2023-02-19T15:55:35.201Z,8.00
2023-02-19T16:00:56.835Z,7.90
2023-02-19T16:06:05.321Z,7.60
2023-02-19T16:11:02.918Z,7.30
2023-02-19T16:16:01.000Z,7.10
2023-02-19T16:20:53.071Z,7.00
2023-02-19T16:25:46.646Z,6.70
2023-02-19T16:30:40.407Z,6.40
2023-02-19T16:35:41.800Z,6.30
2023-02-19T16:40:48.629Z,6.00
2023-02-19T16:45:49.562Z,5.80
2023-02-19T16:50:42.269Z,5.70
2023-02-19T16:55:37.286Z,5.50
2023-02-19T17:00:31.830Z,5.40
2023-02-19T17:05:26.280Z,5.30
2023-02-19T17:10:23.952Z,5.30
2023-02-19T17:15:16.063Z,5.30
2023-02-19T17:20:17.913Z,5.40
2023-02-19T17:25:10.160Z,5.40
2023-02-19T17:30:02.326Z,5.20
2023-02-19T17:34:54.373Z,5.10
2023-02-19T17:39:46.511Z,5.00
2023-02-19T17:44:38.496Z,4.90
2023-02-19T17:49:30.539Z,4.80
2023-02-19T17:54:22.559Z,4.80
2023-02-19T17:59:15.937Z,4.70
2023-02-19T18:04:08.586Z,4.70
2023-02-19T18:09:00.726Z,4.80
2023-02-19T18:13:53.124Z,4.70
2023-02-19T18:18:45.591Z,4.60
2023-02-19T18:23:38.134Z,4.60
2023-02-19T18:28:30.364Z,4.50
2023-02-19T18:33:22.449Z,4.50
2023-02-19T18:38:14.795Z,4.40
2023-02-19T18:43:06.957Z,4.40
2023-02-19T18:47:59.018Z,4.40
2023-02-19T18:52:51.733Z,4.30
2023-02-19T18:57:44.379Z,4.20
2023-02-19T19:02:48.669Z,4.10
2023-02-19T19:07:41.643Z,4.00
2023-02-19T19:12:34.009Z,4.00
2023-02-19T19:17:27.294Z,3.90
2023-02-19T19:22:22.810Z,3.90
2023-02-19T19:27:14.992Z,3.90
2023-02-19T19:32:08.731Z,3.80
2023-02-19T19:37:00.995Z,3.80
2023-02-19T19:41:56.921Z,3.90
2023-02-19T19:46:49.182Z,3.80
2023-02-19T19:51:41.358Z,3.80
2023-02-19T19:56:40.003Z,3.70
2023-02-19T20:01:32.082Z,3.70
2023-02-19T20:06:30.687Z,3.50
2023-02-19T20:11:23.880Z,3.40
2023-02-19T20:17:07.817Z,3.30
2023-02-19T20:22:08.831Z,3.20
2023-02-19T20:27:02.578Z,3.10
2023-02-19T20:31:55.821Z,2.90
2023-02-19T20:36:49.025Z,2.90
2023-02-19T20:41:48.881Z,2.80
2023-02-19T20:46:48.968Z,2.70
2023-02-19T20:51:53.571Z,2.60
2023-02-19T20:56:50.806Z,2.50
2023-02-19T21:01:43.277Z,2.40
2023-02-19T21:06:35.298Z,2.50
2023-02-19T21:11:27.509Z,2.40
2023-02-19T21:16:19.502Z,2.40
2023-02-19T21:21:18.917Z,2.60
2023-02-19T21:26:18.642Z,2.80
2023-02-19T21:31:10.774Z,2.90
2023-02-19T21:36:11.030Z,2.90
2023-02-19T21:41:07.271Z,3.00
2023-02-19T21:45:59.389Z,3.20
2023-02-19T21:50:51.380Z,3.10
2023-02-19T21:55:57.497Z,3.10
2023-02-19T22:00:50.203Z,3.00
2023-02-19T22:05:42.240Z,3.00
2023-02-19T22:10:34.290Z,2.90
2023-02-19T22:15:27.476Z,2.80
2023-02-19T22:20:19.678Z,2.60
2023-02-19T22:25:19.182Z,2.50
2023-02-19T22:30:15.786Z,2.40
2023-02-19T22:35:08.022Z,2.40
2023-02-19T22:40:00.096Z,2.40
2023-02-19T22:44:52.047Z,2.70
2023-02-19T22:49:45.203Z,3.00
2023-02-19T22:54:37.661Z,3.20
2023-02-19T22:59:29.688Z,3.40
2023-02-19T23:04:23.289Z,3.50
2023-02-19T23:09:22.640Z,3.70
2023-02-19T23:14:18.159Z,3.70
2023-02-19T23:19:11.768Z,3.70
2023-02-19T23:24:04.315Z,3.80
2023-02-19T23:28:56.906Z,3.80
2023-02-19T23:33:49.023Z,3.90
2023-02-19T23:38:44.431Z,4.00
2023-02-19T23:43:36.662Z,4.20
2023-02-19T23:48:28.745Z,4.20
2023-02-19T23:53:21.099Z,4.30
2023-02-19T23:58:13.435Z,4.30
